<?xml version="1.0" encoding="UTF-8" standalone="no" ?>
<gpx xmlns="http://www.topografix.com/GPX/1/1" xmlns:xsi="http://www.w3.org/2001/XMLSchema-instance" xsi:schemaLocation="http://www.topografix.com/GPX/1/1 http://www.topografix.com/GPX/1/1/gpx.xsd" version="1.1" creator="VisuGPX - https://www.visugpx.com">
  <metadata>
    <name>Neuvicoise 2024</name>
    <desc><![CDATA[Parcours créé sur Trace de Trail]]></desc>
  </metadata>
  <trk>
    <name><![CDATA[45 km Fournol Neuvicoise 2024 sur TraceDeTrail.fr]]></name>
    <extensions>
      <line xmlns="http://www.topografix.com/GPX/gpx_style/0/2">
        <color>ff7b00</color>
        <width>4</width>
      </line>
    </extensions>
    <trkseg>
      <trkpt lat="45.4212" lon="2.26271">
        <ele>609</ele>
        <time>2024-09-13T05:21:59+00:00</time>
      </trkpt>
      <trkpt lat="45.42096" lon="2.26237">
        <ele>610</ele>
        <time>2024-09-13T05:22:02+00:00</time>
      </trkpt>
      <trkpt lat="45.42079" lon="2.26195">
        <ele>610</ele>
        <time>2024-09-13T05:22:05+00:00</time>
      </trkpt>
      <trkpt lat="45.42053" lon="2.26162">
        <ele>613</ele>
        <time>2024-09-13T05:22:08+00:00</time>
      </trkpt>
      <trkpt lat="45.42029" lon="2.26136">
        <ele>617</ele>
        <time>2024-09-13T05:22:11+00:00</time>
      </trkpt>
      <trkpt lat="45.42005" lon="2.26104">
        <ele>624</ele>
        <time>2024-09-13T05:22:14+00:00</time>
      </trkpt>
      <trkpt lat="45.41985" lon="2.26087">
        <ele>625</ele>
        <time>2024-09-13T05:22:17+00:00</time>
      </trkpt>
      <trkpt lat="45.41961" lon="2.2605">
        <ele>624</ele>
        <time>2024-09-13T05:22:20+00:00</time>
      </trkpt>
      <trkpt lat="45.41941" lon="2.26034">
        <ele>624</ele>
        <time>2024-09-13T05:22:23+00:00</time>
      </trkpt>
      <trkpt lat="45.41921" lon="2.26003">
        <ele>624</ele>
        <time>2024-09-13T05:22:26+00:00</time>
      </trkpt>
      <trkpt lat="45.41872" lon="2.25972">
        <ele>626</ele>
        <time>2024-09-13T05:22:29+00:00</time>
      </trkpt>
      <trkpt lat="45.41849" lon="2.25965">
        <ele>626</ele>
        <time>2024-09-13T05:22:32+00:00</time>
      </trkpt>
      <trkpt lat="45.41825" lon="2.25955">
        <ele>626</ele>
        <time>2024-09-13T05:22:35+00:00</time>
      </trkpt>
      <trkpt lat="45.41792" lon="2.25937">
        <ele>627</ele>
        <time>2024-09-13T05:22:38+00:00</time>
      </trkpt>
      <trkpt lat="45.41777" lon="2.25916">
        <ele>627</ele>
        <time>2024-09-13T05:22:41+00:00</time>
      </trkpt>
      <trkpt lat="45.41769" lon="2.25887">
        <ele>625</ele>
        <time>2024-09-13T05:22:44+00:00</time>
      </trkpt>
      <trkpt lat="45.41752" lon="2.25843">
        <ele>624</ele>
        <time>2024-09-13T05:22:47+00:00</time>
      </trkpt>
      <trkpt lat="45.41745" lon="2.25817">
        <ele>623</ele>
        <time>2024-09-13T05:22:50+00:00</time>
      </trkpt>
      <trkpt lat="45.41746" lon="2.2575">
        <ele>622</ele>
        <time>2024-09-13T05:22:53+00:00</time>
      </trkpt>
      <trkpt lat="45.41749" lon="2.25721">
        <ele>622</ele>
        <time>2024-09-13T05:22:56+00:00</time>
      </trkpt>
      <trkpt lat="45.4174" lon="2.25682">
        <ele>623</ele>
        <time>2024-09-13T05:22:59+00:00</time>
      </trkpt>
      <trkpt lat="45.41746" lon="2.25621">
        <ele>631</ele>
        <time>2024-09-13T05:23:02+00:00</time>
      </trkpt>
      <trkpt lat="45.41744" lon="2.25565">
        <ele>632</ele>
        <time>2024-09-13T05:23:05+00:00</time>
      </trkpt>
      <trkpt lat="45.41741" lon="2.25534">
        <ele>632</ele>
        <time>2024-09-13T05:23:08+00:00</time>
      </trkpt>
      <trkpt lat="45.4175" lon="2.25501">
        <ele>632</ele>
        <time>2024-09-13T05:23:11+00:00</time>
      </trkpt>
      <trkpt lat="45.41772" lon="2.25479">
        <ele>633</ele>
        <time>2024-09-13T05:23:14+00:00</time>
      </trkpt>
      <trkpt lat="45.41782" lon="2.25451">
        <ele>633</ele>
        <time>2024-09-13T05:23:17+00:00</time>
      </trkpt>
      <trkpt lat="45.41782" lon="2.2541">
        <ele>633</ele>
        <time>2024-09-13T05:23:20+00:00</time>
      </trkpt>
      <trkpt lat="45.41771" lon="2.25361">
        <ele>633</ele>
        <time>2024-09-13T05:23:23+00:00</time>
      </trkpt>
      <trkpt lat="45.41757" lon="2.25311">
        <ele>633</ele>
        <time>2024-09-13T05:23:26+00:00</time>
      </trkpt>
      <trkpt lat="45.41752" lon="2.25268">
        <ele>625.3</ele>
        <time>2024-09-13T05:23:29+00:00</time>
      </trkpt>
      <trkpt lat="45.41747" lon="2.25209">
        <ele>624</ele>
        <time>2024-09-13T05:23:35+00:00</time>
      </trkpt>
      <trkpt lat="45.41759" lon="2.25182">
        <ele>630</ele>
        <time>2024-09-13T05:23:38+00:00</time>
      </trkpt>
      <trkpt lat="45.41783" lon="2.25171">
        <ele>630</ele>
        <time>2024-09-13T05:23:41+00:00</time>
      </trkpt>
      <trkpt lat="45.41778" lon="2.25108">
        <ele>627.2</ele>
        <time>2024-09-13T05:23:47+00:00</time>
      </trkpt>
      <trkpt lat="45.41782" lon="2.25031">
        <ele>631.4</ele>
        <time>2024-09-13T05:23:50+00:00</time>
      </trkpt>
      <trkpt lat="45.41794" lon="2.24976">
        <ele>628.6</ele>
        <time>2024-09-13T05:23:56+00:00</time>
      </trkpt>
      <trkpt lat="45.41884" lon="2.24979">
        <ele>636.5</ele>
        <time>2024-09-13T05:23:59+00:00</time>
      </trkpt>
      <trkpt lat="45.41902" lon="2.24972">
        <ele>637</ele>
        <time>2024-09-13T05:24:02+00:00</time>
      </trkpt>
      <trkpt lat="45.41913" lon="2.24927">
        <ele>637</ele>
        <time>2024-09-13T05:24:05+00:00</time>
      </trkpt>
      <trkpt lat="45.41923" lon="2.2488">
        <ele>638</ele>
        <time>2024-09-13T05:24:08+00:00</time>
      </trkpt>
      <trkpt lat="45.41918" lon="2.24829">
        <ele>639</ele>
        <time>2024-09-13T05:24:11+00:00</time>
      </trkpt>
      <trkpt lat="45.4192" lon="2.24796">
        <ele>643</ele>
        <time>2024-09-13T05:24:14+00:00</time>
      </trkpt>
      <trkpt lat="45.41921" lon="2.24762">
        <ele>646</ele>
        <time>2024-09-13T05:24:17+00:00</time>
      </trkpt>
      <trkpt lat="45.41922" lon="2.2472">
        <ele>649</ele>
        <time>2024-09-13T05:24:20+00:00</time>
      </trkpt>
      <trkpt lat="45.41922" lon="2.24675">
        <ele>652</ele>
        <time>2024-09-13T05:24:23+00:00</time>
      </trkpt>
      <trkpt lat="45.41903" lon="2.24613">
        <ele>654</ele>
        <time>2024-09-13T05:24:26+00:00</time>
      </trkpt>
      <trkpt lat="45.41893" lon="2.24583">
        <ele>651</ele>
        <time>2024-09-13T05:24:29+00:00</time>
      </trkpt>
      <trkpt lat="45.41877" lon="2.24544">
        <ele>649</ele>
        <time>2024-09-13T05:24:32+00:00</time>
      </trkpt>
      <trkpt lat="45.41858" lon="2.24508">
        <ele>644</ele>
        <time>2024-09-13T05:24:35+00:00</time>
      </trkpt>
      <trkpt lat="45.41849" lon="2.24469">
        <ele>641</ele>
        <time>2024-09-13T05:24:38+00:00</time>
      </trkpt>
      <trkpt lat="45.41836" lon="2.24409">
        <ele>639</ele>
        <time>2024-09-13T05:24:41+00:00</time>
      </trkpt>
      <trkpt lat="45.41832" lon="2.24374">
        <ele>634</ele>
        <time>2024-09-13T05:24:44+00:00</time>
      </trkpt>
      <trkpt lat="45.41821" lon="2.24322">
        <ele>632</ele>
        <time>2024-09-13T05:24:47+00:00</time>
      </trkpt>
      <trkpt lat="45.4183" lon="2.24282">
        <ele>632</ele>
        <time>2024-09-13T05:24:50+00:00</time>
      </trkpt>
      <trkpt lat="45.4186" lon="2.24237">
        <ele>633</ele>
        <time>2024-09-13T05:24:53+00:00</time>
      </trkpt>
      <trkpt lat="45.41875" lon="2.24185">
        <ele>637</ele>
        <time>2024-09-13T05:24:56+00:00</time>
      </trkpt>
      <trkpt lat="45.41925" lon="2.24143">
        <ele>633.5</ele>
        <time>2024-09-13T05:24:59+00:00</time>
      </trkpt>
      <trkpt lat="45.42003" lon="2.24102">
        <ele>636.7</ele>
        <time>2024-09-13T05:25:02+00:00</time>
      </trkpt>
      <trkpt lat="45.42002" lon="2.24032">
        <ele>639.2</ele>
        <time>2024-09-13T05:25:05+00:00</time>
      </trkpt>
      <trkpt lat="45.4197" lon="2.23957">
        <ele>638</ele>
        <time>2024-09-13T05:25:08+00:00</time>
      </trkpt>
      <trkpt lat="45.4195" lon="2.23903">
        <ele>639.1</ele>
      </trkpt>
      <trkpt lat="45.41912" lon="2.23881">
        <ele>648</ele>
        <time>2024-09-13T05:25:17+00:00</time>
      </trkpt>
      <trkpt lat="45.41885" lon="2.2384">
        <ele>647</ele>
        <time>2024-09-13T05:25:20+00:00</time>
      </trkpt>
      <trkpt lat="45.4185" lon="2.23807">
        <ele>646</ele>
        <time>2024-09-13T05:25:23+00:00</time>
      </trkpt>
      <trkpt lat="45.41811" lon="2.2379">
        <ele>645</ele>
        <time>2024-09-13T05:25:26+00:00</time>
      </trkpt>
      <trkpt lat="45.41767" lon="2.23779">
        <ele>645</ele>
        <time>2024-09-13T05:25:29+00:00</time>
      </trkpt>
      <trkpt lat="45.41728" lon="2.23758">
        <ele>645</ele>
        <time>2024-09-13T05:25:32+00:00</time>
      </trkpt>
      <trkpt lat="45.41688" lon="2.23738">
        <ele>638</ele>
        <time>2024-09-13T05:25:35+00:00</time>
      </trkpt>
      <trkpt lat="45.41662" lon="2.23724">
        <ele>638</ele>
        <time>2024-09-13T05:25:38+00:00</time>
      </trkpt>
      <trkpt lat="45.4162" lon="2.23717">
        <ele>652.5</ele>
        <time>2024-09-13T05:25:41+00:00</time>
      </trkpt>
      <trkpt lat="45.41649" lon="2.23687">
        <ele>635</ele>
        <time>2024-09-13T05:25:44+00:00</time>
      </trkpt>
      <trkpt lat="45.41675" lon="2.23667">
        <ele>635</ele>
        <time>2024-09-13T05:25:47+00:00</time>
      </trkpt>
      <trkpt lat="45.41717" lon="2.23636">
        <ele>635</ele>
        <time>2024-09-13T05:25:50+00:00</time>
      </trkpt>
      <trkpt lat="45.41751" lon="2.23617">
        <ele>635</ele>
        <time>2024-09-13T05:25:53+00:00</time>
      </trkpt>
      <trkpt lat="45.41785" lon="2.2359">
        <ele>635</ele>
        <time>2024-09-13T05:25:56+00:00</time>
      </trkpt>
      <trkpt lat="45.4181" lon="2.23567">
        <ele>635</ele>
        <time>2024-09-13T05:25:59+00:00</time>
      </trkpt>
      <trkpt lat="45.41828" lon="2.23544">
        <ele>637</ele>
        <time>2024-09-13T05:26:02+00:00</time>
      </trkpt>
      <trkpt lat="45.41846" lon="2.23522">
        <ele>637</ele>
        <time>2024-09-13T05:26:05+00:00</time>
      </trkpt>
      <trkpt lat="45.41858" lon="2.23489">
        <ele>637</ele>
        <time>2024-09-13T05:26:08+00:00</time>
      </trkpt>
      <trkpt lat="45.41859" lon="2.2346">
        <ele>638</ele>
        <time>2024-09-13T05:26:11+00:00</time>
      </trkpt>
      <trkpt lat="45.41856" lon="2.23423">
        <ele>640</ele>
        <time>2024-09-13T05:26:14+00:00</time>
      </trkpt>
      <trkpt lat="45.41853" lon="2.23382">
        <ele>642</ele>
        <time>2024-09-13T05:26:17+00:00</time>
      </trkpt>
      <trkpt lat="45.41849" lon="2.23338">
        <ele>644</ele>
        <time>2024-09-13T05:26:20+00:00</time>
      </trkpt>
      <trkpt lat="45.41838" lon="2.23271">
        <ele>653.8</ele>
        <time>2024-09-13T05:26:23+00:00</time>
      </trkpt>
      <trkpt lat="45.41799" lon="2.23278">
        <ele>651.3</ele>
        <time>2024-09-13T05:26:29+00:00</time>
      </trkpt>
      <trkpt lat="45.41763" lon="2.23247">
        <ele>649.5</ele>
      </trkpt>
      <trkpt lat="45.41745" lon="2.23202">
        <ele>648.6</ele>
      </trkpt>
      <trkpt lat="45.41612" lon="2.23237">
        <ele>644.5</ele>
        <time>2024-09-13T05:26:32+00:00</time>
      </trkpt>
      <trkpt lat="45.41526" lon="2.2328">
        <ele>645.8</ele>
        <time>2024-09-13T05:26:35+00:00</time>
      </trkpt>
      <trkpt lat="45.41489" lon="2.23271">
        <ele>647</ele>
        <time>2024-09-13T05:26:38+00:00</time>
      </trkpt>
      <trkpt lat="45.41471" lon="2.23175">
        <ele>645.2</ele>
        <time>2024-09-13T05:26:53+00:00</time>
      </trkpt>
      <trkpt lat="45.41441" lon="2.23162">
        <ele>639</ele>
        <time>2024-09-13T05:26:56+00:00</time>
      </trkpt>
      <trkpt lat="45.41417" lon="2.23155">
        <ele>640</ele>
        <time>2024-09-13T05:26:59+00:00</time>
      </trkpt>
      <trkpt lat="45.41391" lon="2.23148">
        <ele>641</ele>
        <time>2024-09-13T05:27:02+00:00</time>
      </trkpt>
      <trkpt lat="45.41361" lon="2.23136">
        <ele>643</ele>
        <time>2024-09-13T05:27:05+00:00</time>
      </trkpt>
      <trkpt lat="45.41334" lon="2.23126">
        <ele>643</ele>
        <time>2024-09-13T05:27:08+00:00</time>
      </trkpt>
      <trkpt lat="45.413" lon="2.23113">
        <ele>639</ele>
        <time>2024-09-13T05:27:11+00:00</time>
      </trkpt>
      <trkpt lat="45.41274" lon="2.23103">
        <ele>639</ele>
        <time>2024-09-13T05:27:14+00:00</time>
      </trkpt>
      <trkpt lat="45.41243" lon="2.23091">
        <ele>640</ele>
        <time>2024-09-13T05:27:17+00:00</time>
      </trkpt>
      <trkpt lat="45.41218" lon="2.23081">
        <ele>634</ele>
        <time>2024-09-13T05:27:20+00:00</time>
      </trkpt>
      <trkpt lat="45.4119" lon="2.23069">
        <ele>628</ele>
        <time>2024-09-13T05:27:23+00:00</time>
      </trkpt>
      <trkpt lat="45.41156" lon="2.23065">
        <ele>621</ele>
        <time>2024-09-13T05:27:26+00:00</time>
      </trkpt>
      <trkpt lat="45.41129" lon="2.23067">
        <ele>617</ele>
        <time>2024-09-13T05:27:29+00:00</time>
      </trkpt>
      <trkpt lat="45.41091" lon="2.2307">
        <ele>619</ele>
        <time>2024-09-13T05:27:32+00:00</time>
      </trkpt>
      <trkpt lat="45.41067" lon="2.23071">
        <ele>619</ele>
        <time>2024-09-13T05:27:35+00:00</time>
      </trkpt>
      <trkpt lat="45.41042" lon="2.23073">
        <ele>620</ele>
        <time>2024-09-13T05:27:38+00:00</time>
      </trkpt>
      <trkpt lat="45.41012" lon="2.23064">
        <ele>620</ele>
        <time>2024-09-13T05:27:41+00:00</time>
      </trkpt>
      <trkpt lat="45.40969" lon="2.23108">
        <ele>631.1</ele>
        <time>2024-09-13T05:27:44+00:00</time>
      </trkpt>
      <trkpt lat="45.40948" lon="2.23124">
        <ele>633.4</ele>
      </trkpt>
      <trkpt lat="45.40928" lon="2.23012">
        <ele>637.8</ele>
        <time>2024-09-13T05:27:47+00:00</time>
      </trkpt>
      <trkpt lat="45.40961" lon="2.2292">
        <ele>627</ele>
        <time>2024-09-13T05:27:53+00:00</time>
      </trkpt>
      <trkpt lat="45.40967" lon="2.22884">
        <ele>630</ele>
        <time>2024-09-13T05:27:56+00:00</time>
      </trkpt>
      <trkpt lat="45.40963" lon="2.22847">
        <ele>631</ele>
        <time>2024-09-13T05:27:59+00:00</time>
      </trkpt>
      <trkpt lat="45.40952" lon="2.22802">
        <ele>631</ele>
        <time>2024-09-13T05:28:02+00:00</time>
      </trkpt>
      <trkpt lat="45.40952" lon="2.22768">
        <ele>639.3</ele>
      </trkpt>
      <trkpt lat="45.41004" lon="2.22677">
        <ele>641.2</ele>
        <time>2024-09-13T05:28:14+00:00</time>
      </trkpt>
      <trkpt lat="45.4103" lon="2.22632">
        <ele>643.4</ele>
        <time>2024-09-13T05:28:17+00:00</time>
      </trkpt>
      <trkpt lat="45.41004" lon="2.22606">
        <ele>641.7</ele>
      </trkpt>
      <trkpt lat="45.40972" lon="2.22608">
        <ele>633</ele>
        <time>2024-09-13T05:28:20+00:00</time>
      </trkpt>
      <trkpt lat="45.40954" lon="2.22592">
        <ele>635</ele>
        <time>2024-09-13T05:28:23+00:00</time>
      </trkpt>
      <trkpt lat="45.40943" lon="2.22538">
        <ele>635</ele>
        <time>2024-09-13T05:28:26+00:00</time>
      </trkpt>
      <trkpt lat="45.40934" lon="2.22512">
        <ele>635</ele>
        <time>2024-09-13T05:28:29+00:00</time>
      </trkpt>
      <trkpt lat="45.40918" lon="2.2249">
        <ele>637</ele>
        <time>2024-09-13T05:28:32+00:00</time>
      </trkpt>
      <trkpt lat="45.40908" lon="2.22442">
        <ele>642</ele>
        <time>2024-09-13T05:28:35+00:00</time>
      </trkpt>
      <trkpt lat="45.40894" lon="2.22419">
        <ele>642</ele>
        <time>2024-09-13T05:28:38+00:00</time>
      </trkpt>
      <trkpt lat="45.40825" lon="2.22406">
        <ele>635</ele>
        <time>2024-09-13T05:28:41+00:00</time>
      </trkpt>
      <trkpt lat="45.40791" lon="2.22384">
        <ele>636</ele>
        <time>2024-09-13T05:28:44+00:00</time>
      </trkpt>
      <trkpt lat="45.40771" lon="2.22364">
        <ele>638</ele>
        <time>2024-09-13T05:28:47+00:00</time>
      </trkpt>
      <trkpt lat="45.40752" lon="2.22345">
        <ele>642</ele>
        <time>2024-09-13T05:28:50+00:00</time>
      </trkpt>
      <trkpt lat="45.40728" lon="2.22319">
        <ele>645</ele>
        <time>2024-09-13T05:28:53+00:00</time>
      </trkpt>
      <trkpt lat="45.40709" lon="2.22298">
        <ele>643</ele>
        <time>2024-09-13T05:28:56+00:00</time>
      </trkpt>
      <trkpt lat="45.40689" lon="2.22276">
        <ele>642</ele>
        <time>2024-09-13T05:28:59+00:00</time>
      </trkpt>
      <trkpt lat="45.407" lon="2.22238">
        <ele>636</ele>
        <time>2024-09-13T05:29:02+00:00</time>
      </trkpt>
      <trkpt lat="45.4071" lon="2.22204">
        <ele>633</ele>
        <time>2024-09-13T05:29:05+00:00</time>
      </trkpt>
      <trkpt lat="45.40696" lon="2.22154">
        <ele>636</ele>
        <time>2024-09-13T05:29:08+00:00</time>
      </trkpt>
      <trkpt lat="45.40659" lon="2.22123">
        <ele>639</ele>
        <time>2024-09-13T05:29:11+00:00</time>
      </trkpt>
      <trkpt lat="45.40639" lon="2.221">
        <ele>639</ele>
        <time>2024-09-13T05:29:14+00:00</time>
      </trkpt>
      <trkpt lat="45.40616" lon="2.22074">
        <ele>632</ele>
        <time>2024-09-13T05:29:17+00:00</time>
      </trkpt>
      <trkpt lat="45.40598" lon="2.22044">
        <ele>621</ele>
        <time>2024-09-13T05:29:20+00:00</time>
      </trkpt>
      <trkpt lat="45.40579" lon="2.22037">
        <ele>621</ele>
        <time>2024-09-13T05:29:23+00:00</time>
      </trkpt>
      <trkpt lat="45.4056" lon="2.22052">
        <ele>618</ele>
        <time>2024-09-13T05:29:26+00:00</time>
      </trkpt>
      <trkpt lat="45.40522" lon="2.22048">
        <ele>616</ele>
        <time>2024-09-13T05:29:29+00:00</time>
      </trkpt>
      <trkpt lat="45.40503" lon="2.22055">
        <ele>612</ele>
        <time>2024-09-13T05:29:32+00:00</time>
      </trkpt>
      <trkpt lat="45.40487" lon="2.22074">
        <ele>611</ele>
        <time>2024-09-13T05:29:35+00:00</time>
      </trkpt>
      <trkpt lat="45.40472" lon="2.22092">
        <ele>611</ele>
        <time>2024-09-13T05:29:38+00:00</time>
      </trkpt>
      <trkpt lat="45.40451" lon="2.22122">
        <ele>612</ele>
        <time>2024-09-13T05:29:41+00:00</time>
      </trkpt>
      <trkpt lat="45.40444" lon="2.2216">
        <ele>611</ele>
        <time>2024-09-13T05:29:44+00:00</time>
      </trkpt>
      <trkpt lat="45.40433" lon="2.22213">
        <ele>611</ele>
        <time>2024-09-13T05:29:47+00:00</time>
      </trkpt>
      <trkpt lat="45.40408" lon="2.22233">
        <ele>611</ele>
        <time>2024-09-13T05:29:50+00:00</time>
      </trkpt>
      <trkpt lat="45.40367" lon="2.22264">
        <ele>608</ele>
        <time>2024-09-13T05:29:53+00:00</time>
      </trkpt>
      <trkpt lat="45.40345" lon="2.22276">
        <ele>604</ele>
        <time>2024-09-13T05:29:56+00:00</time>
      </trkpt>
      <trkpt lat="45.40322" lon="2.22289">
        <ele>604</ele>
        <time>2024-09-13T05:29:59+00:00</time>
      </trkpt>
      <trkpt lat="45.4028" lon="2.2228">
        <ele>606</ele>
        <time>2024-09-13T05:30:02+00:00</time>
      </trkpt>
      <trkpt lat="45.40247" lon="2.22242">
        <ele>605</ele>
        <time>2024-09-13T05:30:05+00:00</time>
      </trkpt>
      <trkpt lat="45.40221" lon="2.22249">
        <ele>604</ele>
        <time>2024-09-13T05:30:08+00:00</time>
      </trkpt>
      <trkpt lat="45.40191" lon="2.22257">
        <ele>600</ele>
        <time>2024-09-13T05:30:11+00:00</time>
      </trkpt>
      <trkpt lat="45.40159" lon="2.22267">
        <ele>598</ele>
        <time>2024-09-13T05:30:14+00:00</time>
      </trkpt>
      <trkpt lat="45.40134" lon="2.22286">
        <ele>599</ele>
        <time>2024-09-13T05:30:17+00:00</time>
      </trkpt>
      <trkpt lat="45.40111" lon="2.22277">
        <ele>601</ele>
        <time>2024-09-13T05:30:20+00:00</time>
      </trkpt>
      <trkpt lat="45.40086" lon="2.22267">
        <ele>599</ele>
        <time>2024-09-13T05:30:23+00:00</time>
      </trkpt>
      <trkpt lat="45.40047" lon="2.2225">
        <ele>598</ele>
        <time>2024-09-13T05:30:26+00:00</time>
      </trkpt>
      <trkpt lat="45.4002" lon="2.22267">
        <ele>598</ele>
        <time>2024-09-13T05:30:29+00:00</time>
      </trkpt>
      <trkpt lat="45.39998" lon="2.22281">
        <ele>595</ele>
        <time>2024-09-13T05:30:32+00:00</time>
      </trkpt>
      <trkpt lat="45.39976" lon="2.22296">
        <ele>594</ele>
        <time>2024-09-13T05:30:35+00:00</time>
      </trkpt>
      <trkpt lat="45.39952" lon="2.22316">
        <ele>594</ele>
        <time>2024-09-13T05:30:38+00:00</time>
      </trkpt>
      <trkpt lat="45.39919" lon="2.22345">
        <ele>594</ele>
        <time>2024-09-13T05:30:41+00:00</time>
      </trkpt>
      <trkpt lat="45.39899" lon="2.22402">
        <ele>595</ele>
        <time>2024-09-13T05:30:44+00:00</time>
      </trkpt>
      <trkpt lat="45.39877" lon="2.22427">
        <ele>596</ele>
        <time>2024-09-13T05:30:47+00:00</time>
      </trkpt>
      <trkpt lat="45.39853" lon="2.22437">
        <ele>596</ele>
        <time>2024-09-13T05:30:50+00:00</time>
      </trkpt>
      <trkpt lat="45.39827" lon="2.22448">
        <ele>587</ele>
        <time>2024-09-13T05:30:53+00:00</time>
      </trkpt>
      <trkpt lat="45.39797" lon="2.22451">
        <ele>585</ele>
        <time>2024-09-13T05:30:56+00:00</time>
      </trkpt>
      <trkpt lat="45.39772" lon="2.22452">
        <ele>585</ele>
        <time>2024-09-13T05:30:59+00:00</time>
      </trkpt>
      <trkpt lat="45.39745" lon="2.22455">
        <ele>584</ele>
        <time>2024-09-13T05:31:02+00:00</time>
      </trkpt>
      <trkpt lat="45.39731" lon="2.22486">
        <ele>583</ele>
        <time>2024-09-13T05:31:05+00:00</time>
      </trkpt>
      <trkpt lat="45.39712" lon="2.22526">
        <ele>579</ele>
        <time>2024-09-13T05:31:08+00:00</time>
      </trkpt>
      <trkpt lat="45.39703" lon="2.22584">
        <ele>584</ele>
        <time>2024-09-13T05:31:11+00:00</time>
      </trkpt>
      <trkpt lat="45.39673" lon="2.2262">
        <ele>567.6</ele>
        <time>2024-09-13T05:31:17+00:00</time>
      </trkpt>
      <trkpt lat="45.39582" lon="2.22675">
        <ele>565</ele>
        <time>2024-09-13T05:31:29+00:00</time>
      </trkpt>
      <trkpt lat="45.39556" lon="2.22678">
        <ele>560</ele>
        <time>2024-09-13T05:31:32+00:00</time>
      </trkpt>
      <trkpt lat="45.39522" lon="2.22683">
        <ele>561</ele>
        <time>2024-09-13T05:31:35+00:00</time>
      </trkpt>
      <trkpt lat="45.39513" lon="2.22659">
        <ele>561</ele>
        <time>2024-09-13T05:31:38+00:00</time>
      </trkpt>
      <trkpt lat="45.39494" lon="2.22688">
        <ele>562</ele>
        <time>2024-09-13T05:31:41+00:00</time>
      </trkpt>
      <trkpt lat="45.39466" lon="2.22729">
        <ele>568</ele>
        <time>2024-09-13T05:31:44+00:00</time>
      </trkpt>
      <trkpt lat="45.39445" lon="2.22755">
        <ele>571</ele>
        <time>2024-09-13T05:31:47+00:00</time>
      </trkpt>
      <trkpt lat="45.39417" lon="2.22789">
        <ele>570</ele>
        <time>2024-09-13T05:31:50+00:00</time>
      </trkpt>
      <trkpt lat="45.39393" lon="2.22807">
        <ele>570</ele>
        <time>2024-09-13T05:31:53+00:00</time>
      </trkpt>
      <trkpt lat="45.39363" lon="2.2283">
        <ele>569</ele>
        <time>2024-09-13T05:31:56+00:00</time>
      </trkpt>
      <trkpt lat="45.39318" lon="2.22819">
        <ele>568</ele>
        <time>2024-09-13T05:31:59+00:00</time>
      </trkpt>
      <trkpt lat="45.39286" lon="2.22803">
        <ele>566</ele>
        <time>2024-09-13T05:32:02+00:00</time>
      </trkpt>
      <trkpt lat="45.39255" lon="2.22787">
        <ele>564</ele>
        <time>2024-09-13T05:32:05+00:00</time>
      </trkpt>
      <trkpt lat="45.39211" lon="2.22764">
        <ele>564</ele>
        <time>2024-09-13T05:32:08+00:00</time>
      </trkpt>
      <trkpt lat="45.39184" lon="2.2275">
        <ele>559</ele>
        <time>2024-09-13T05:32:11+00:00</time>
      </trkpt>
      <trkpt lat="45.39143" lon="2.22729">
        <ele>555</ele>
        <time>2024-09-13T05:32:14+00:00</time>
      </trkpt>
      <trkpt lat="45.39112" lon="2.22697">
        <ele>553</ele>
        <time>2024-09-13T05:32:17+00:00</time>
      </trkpt>
      <trkpt lat="45.39111" lon="2.22739">
        <ele>556</ele>
        <time>2024-09-13T05:32:20+00:00</time>
      </trkpt>
      <trkpt lat="45.39106" lon="2.22771">
        <ele>560</ele>
        <time>2024-09-13T05:32:23+00:00</time>
      </trkpt>
      <trkpt lat="45.3912" lon="2.22809">
        <ele>561</ele>
        <time>2024-09-13T05:32:26+00:00</time>
      </trkpt>
      <trkpt lat="45.39148" lon="2.22849">
        <ele>561</ele>
        <time>2024-09-13T05:32:29+00:00</time>
      </trkpt>
      <trkpt lat="45.39161" lon="2.22874">
        <ele>561</ele>
        <time>2024-09-13T05:32:32+00:00</time>
      </trkpt>
      <trkpt lat="45.39172" lon="2.22898">
        <ele>565</ele>
        <time>2024-09-13T05:32:35+00:00</time>
      </trkpt>
      <trkpt lat="45.3919" lon="2.22958">
        <ele>570</ele>
        <time>2024-09-13T05:32:38+00:00</time>
      </trkpt>
      <trkpt lat="45.392" lon="2.22998">
        <ele>571</ele>
        <time>2024-09-13T05:32:41+00:00</time>
      </trkpt>
      <trkpt lat="45.3921" lon="2.23054">
        <ele>583</ele>
        <time>2024-09-13T05:32:44+00:00</time>
      </trkpt>
      <trkpt lat="45.39214" lon="2.23086">
        <ele>589</ele>
        <time>2024-09-13T05:32:47+00:00</time>
      </trkpt>
      <trkpt lat="45.3922" lon="2.23132">
        <ele>589</ele>
        <time>2024-09-13T05:32:50+00:00</time>
      </trkpt>
      <trkpt lat="45.39242" lon="2.23157">
        <ele>590</ele>
        <time>2024-09-13T05:32:53+00:00</time>
      </trkpt>
      <trkpt lat="45.39252" lon="2.23182">
        <ele>590</ele>
        <time>2024-09-13T05:32:56+00:00</time>
      </trkpt>
      <trkpt lat="45.3926" lon="2.23221">
        <ele>591</ele>
        <time>2024-09-13T05:32:59+00:00</time>
      </trkpt>
      <trkpt lat="45.39263" lon="2.23283">
        <ele>592</ele>
        <time>2024-09-13T05:33:02+00:00</time>
      </trkpt>
      <trkpt lat="45.39264" lon="2.23317">
        <ele>593</ele>
        <time>2024-09-13T05:33:05+00:00</time>
      </trkpt>
      <trkpt lat="45.39265" lon="2.23354">
        <ele>594</ele>
        <time>2024-09-13T05:33:08+00:00</time>
      </trkpt>
      <trkpt lat="45.39286" lon="2.23388">
        <ele>600</ele>
        <time>2024-09-13T05:33:11+00:00</time>
      </trkpt>
      <trkpt lat="45.39307" lon="2.23423">
        <ele>601</ele>
        <time>2024-09-13T05:33:14+00:00</time>
      </trkpt>
      <trkpt lat="45.39328" lon="2.23458">
        <ele>604</ele>
        <time>2024-09-13T05:33:17+00:00</time>
      </trkpt>
      <trkpt lat="45.39344" lon="2.23477">
        <ele>603</ele>
        <time>2024-09-13T05:33:20+00:00</time>
      </trkpt>
      <trkpt lat="45.39339" lon="2.23502">
        <ele>603</ele>
        <time>2024-09-13T05:33:23+00:00</time>
      </trkpt>
      <trkpt lat="45.39325" lon="2.2352">
        <ele>600</ele>
        <time>2024-09-13T05:33:26+00:00</time>
      </trkpt>
      <trkpt lat="45.3928" lon="2.23554">
        <ele>599</ele>
        <time>2024-09-13T05:33:29+00:00</time>
      </trkpt>
      <trkpt lat="45.3925" lon="2.23612">
        <ele>599</ele>
        <time>2024-09-13T05:33:32+00:00</time>
      </trkpt>
      <trkpt lat="45.39239" lon="2.23637">
        <ele>600</ele>
        <time>2024-09-13T05:33:35+00:00</time>
      </trkpt>
      <trkpt lat="45.39225" lon="2.23665">
        <ele>601</ele>
        <time>2024-09-13T05:33:38+00:00</time>
      </trkpt>
      <trkpt lat="45.39203" lon="2.23698">
        <ele>604</ele>
        <time>2024-09-13T05:33:41+00:00</time>
      </trkpt>
      <trkpt lat="45.39178" lon="2.23725">
        <ele>609</ele>
        <time>2024-09-13T05:33:44+00:00</time>
      </trkpt>
      <trkpt lat="45.39165" lon="2.2378">
        <ele>611</ele>
        <time>2024-09-13T05:33:47+00:00</time>
      </trkpt>
      <trkpt lat="45.39161" lon="2.2382">
        <ele>612</ele>
        <time>2024-09-13T05:33:50+00:00</time>
      </trkpt>
      <trkpt lat="45.39194" lon="2.23856">
        <ele>617</ele>
        <time>2024-09-13T05:33:53+00:00</time>
      </trkpt>
      <trkpt lat="45.39213" lon="2.23894">
        <ele>617</ele>
        <time>2024-09-13T05:33:56+00:00</time>
      </trkpt>
      <trkpt lat="45.39228" lon="2.23934">
        <ele>615</ele>
        <time>2024-09-13T05:33:59+00:00</time>
      </trkpt>
      <trkpt lat="45.39242" lon="2.23974">
        <ele>605</ele>
        <time>2024-09-13T05:34:02+00:00</time>
      </trkpt>
      <trkpt lat="45.39258" lon="2.24017">
        <ele>605</ele>
        <time>2024-09-13T05:34:05+00:00</time>
      </trkpt>
      <trkpt lat="45.39278" lon="2.24056">
        <ele>607</ele>
        <time>2024-09-13T05:34:08+00:00</time>
      </trkpt>
      <trkpt lat="45.3931" lon="2.24141">
        <ele>611</ele>
        <time>2024-09-13T05:34:11+00:00</time>
      </trkpt>
      <trkpt lat="45.39323" lon="2.24169">
        <ele>611</ele>
        <time>2024-09-13T05:34:14+00:00</time>
      </trkpt>
      <trkpt lat="45.39336" lon="2.24198">
        <ele>611</ele>
        <time>2024-09-13T05:34:17+00:00</time>
      </trkpt>
      <trkpt lat="45.39337" lon="2.24242">
        <ele>616</ele>
        <time>2024-09-13T05:34:20+00:00</time>
      </trkpt>
      <trkpt lat="45.39343" lon="2.24281">
        <ele>619</ele>
        <time>2024-09-13T05:34:23+00:00</time>
      </trkpt>
      <trkpt lat="45.39345" lon="2.24323">
        <ele>617</ele>
        <time>2024-09-13T05:34:26+00:00</time>
      </trkpt>
      <trkpt lat="45.39343" lon="2.24354">
        <ele>616</ele>
        <time>2024-09-13T05:34:29+00:00</time>
      </trkpt>
      <trkpt lat="45.39342" lon="2.24412">
        <ele>612</ele>
        <time>2024-09-13T05:34:32+00:00</time>
      </trkpt>
      <trkpt lat="45.39337" lon="2.24462">
        <ele>612</ele>
        <time>2024-09-13T05:34:35+00:00</time>
      </trkpt>
      <trkpt lat="45.39326" lon="2.24498">
        <ele>613</ele>
        <time>2024-09-13T05:34:38+00:00</time>
      </trkpt>
      <trkpt lat="45.39319" lon="2.24538">
        <ele>613</ele>
        <time>2024-09-13T05:34:41+00:00</time>
      </trkpt>
      <trkpt lat="45.39307" lon="2.24576">
        <ele>618</ele>
        <time>2024-09-13T05:34:44+00:00</time>
      </trkpt>
      <trkpt lat="45.39303" lon="2.2462">
        <ele>623</ele>
        <time>2024-09-13T05:34:47+00:00</time>
      </trkpt>
      <trkpt lat="45.39298" lon="2.24659">
        <ele>623</ele>
        <time>2024-09-13T05:34:50+00:00</time>
      </trkpt>
      <trkpt lat="45.39284" lon="2.24702">
        <ele>623</ele>
        <time>2024-09-13T05:34:53+00:00</time>
      </trkpt>
      <trkpt lat="45.39272" lon="2.24736">
        <ele>625</ele>
        <time>2024-09-13T05:34:56+00:00</time>
      </trkpt>
      <trkpt lat="45.39266" lon="2.24772">
        <ele>632</ele>
        <time>2024-09-13T05:34:59+00:00</time>
      </trkpt>
      <trkpt lat="45.39259" lon="2.24814">
        <ele>633</ele>
        <time>2024-09-13T05:35:02+00:00</time>
      </trkpt>
      <trkpt lat="45.39253" lon="2.24862">
        <ele>641</ele>
        <time>2024-09-13T05:35:05+00:00</time>
      </trkpt>
      <trkpt lat="45.39247" lon="2.24909">
        <ele>643</ele>
        <time>2024-09-13T05:35:08+00:00</time>
      </trkpt>
      <trkpt lat="45.39243" lon="2.24944">
        <ele>644</ele>
        <time>2024-09-13T05:35:11+00:00</time>
      </trkpt>
      <trkpt lat="45.39238" lon="2.24983">
        <ele>645</ele>
        <time>2024-09-13T05:35:14+00:00</time>
      </trkpt>
      <trkpt lat="45.39236" lon="2.25027">
        <ele>647</ele>
        <time>2024-09-13T05:35:17+00:00</time>
      </trkpt>
      <trkpt lat="45.39233" lon="2.25064">
        <ele>646</ele>
        <time>2024-09-13T05:35:20+00:00</time>
      </trkpt>
      <trkpt lat="45.3923" lon="2.25109">
        <ele>646</ele>
        <time>2024-09-13T05:35:23+00:00</time>
      </trkpt>
      <trkpt lat="45.39226" lon="2.25152">
        <ele>646</ele>
        <time>2024-09-13T05:35:26+00:00</time>
      </trkpt>
      <trkpt lat="45.39222" lon="2.25187">
        <ele>646</ele>
        <time>2024-09-13T05:35:29+00:00</time>
      </trkpt>
      <trkpt lat="45.39218" lon="2.25227">
        <ele>644</ele>
        <time>2024-09-13T05:35:32+00:00</time>
      </trkpt>
      <trkpt lat="45.39218" lon="2.2528">
        <ele>642</ele>
        <time>2024-09-13T05:35:35+00:00</time>
      </trkpt>
      <trkpt lat="45.3922" lon="2.25316">
        <ele>643</ele>
        <time>2024-09-13T05:35:38+00:00</time>
      </trkpt>
      <trkpt lat="45.39221" lon="2.25359">
        <ele>645</ele>
        <time>2024-09-13T05:35:41+00:00</time>
      </trkpt>
      <trkpt lat="45.39226" lon="2.2539">
        <ele>645</ele>
        <time>2024-09-13T05:35:44+00:00</time>
      </trkpt>
      <trkpt lat="45.39245" lon="2.25358">
        <ele>644</ele>
        <time>2024-09-13T05:35:47+00:00</time>
      </trkpt>
      <trkpt lat="45.39279" lon="2.25301">
        <ele>643</ele>
        <time>2024-09-13T05:35:50+00:00</time>
      </trkpt>
      <trkpt lat="45.39312" lon="2.25317">
        <ele>643</ele>
        <time>2024-09-13T05:35:53+00:00</time>
      </trkpt>
      <trkpt lat="45.39344" lon="2.25332">
        <ele>643</ele>
        <time>2024-09-13T05:35:56+00:00</time>
      </trkpt>
      <trkpt lat="45.39395" lon="2.25357">
        <ele>642</ele>
        <time>2024-09-13T05:35:59+00:00</time>
      </trkpt>
      <trkpt lat="45.39429" lon="2.25373">
        <ele>642</ele>
        <time>2024-09-13T05:36:02+00:00</time>
      </trkpt>
      <trkpt lat="45.39464" lon="2.25389">
        <ele>636</ele>
        <time>2024-09-13T05:36:05+00:00</time>
      </trkpt>
      <trkpt lat="45.39498" lon="2.25405">
        <ele>633</ele>
        <time>2024-09-13T05:36:08+00:00</time>
      </trkpt>
      <trkpt lat="45.39538" lon="2.25424">
        <ele>633</ele>
        <time>2024-09-13T05:36:11+00:00</time>
      </trkpt>
      <trkpt lat="45.39563" lon="2.25432">
        <ele>637</ele>
        <time>2024-09-13T05:36:14+00:00</time>
      </trkpt>
      <trkpt lat="45.39591" lon="2.25441">
        <ele>638</ele>
        <time>2024-09-13T05:36:17+00:00</time>
      </trkpt>
      <trkpt lat="45.39595" lon="2.25486">
        <ele>640.8</ele>
        <time>2024-09-13T05:36:20+00:00</time>
      </trkpt>
      <trkpt lat="45.39596" lon="2.25524">
        <ele>642.9</ele>
        <time>2024-09-13T05:36:23+00:00</time>
      </trkpt>
      <trkpt lat="45.39595" lon="2.25576">
        <ele>646.9</ele>
        <time>2024-09-13T05:36:26+00:00</time>
      </trkpt>
      <trkpt lat="45.39601" lon="2.25617">
        <ele>647.3</ele>
        <time>2024-09-13T05:36:29+00:00</time>
      </trkpt>
      <trkpt lat="45.39584" lon="2.25683">
        <ele>649.4</ele>
        <time>2024-09-13T05:36:32+00:00</time>
      </trkpt>
      <trkpt lat="45.39598" lon="2.25715">
        <ele>659</ele>
        <time>2024-09-13T05:36:35+00:00</time>
      </trkpt>
      <trkpt lat="45.39602" lon="2.25758">
        <ele>659</ele>
        <time>2024-09-13T05:36:38+00:00</time>
      </trkpt>
      <trkpt lat="45.39603" lon="2.25797">
        <ele>661</ele>
        <time>2024-09-13T05:36:41+00:00</time>
      </trkpt>
      <trkpt lat="45.39605" lon="2.25851">
        <ele>662</ele>
        <time>2024-09-13T05:36:44+00:00</time>
      </trkpt>
      <trkpt lat="45.39618" lon="2.25887">
        <ele>654.5</ele>
        <time>2024-09-13T05:36:47+00:00</time>
      </trkpt>
      <trkpt lat="45.39618" lon="2.25943">
        <ele>658.2</ele>
        <time>2024-09-13T05:36:50+00:00</time>
      </trkpt>
      <trkpt lat="45.39602" lon="2.25982">
        <ele>669</ele>
        <time>2024-09-13T05:36:53+00:00</time>
      </trkpt>
      <trkpt lat="45.39597" lon="2.26035">
        <ele>666</ele>
        <time>2024-09-13T05:36:56+00:00</time>
      </trkpt>
      <trkpt lat="45.39603" lon="2.26069">
        <ele>663</ele>
        <time>2024-09-13T05:36:59+00:00</time>
      </trkpt>
      <trkpt lat="45.39574" lon="2.26104">
        <ele>667.1</ele>
        <time>2024-09-13T05:37:02+00:00</time>
      </trkpt>
      <trkpt lat="45.39529" lon="2.26155">
        <ele>674.3</ele>
        <time>2024-09-13T05:37:05+00:00</time>
      </trkpt>
      <trkpt lat="45.39511" lon="2.26183">
        <ele>674.7</ele>
        <time>2024-09-13T05:37:08+00:00</time>
      </trkpt>
      <trkpt lat="45.39475" lon="2.26237">
        <ele>676</ele>
        <time>2024-09-13T05:37:11+00:00</time>
      </trkpt>
      <trkpt lat="45.39453" lon="2.26253">
        <ele>674</ele>
        <time>2024-09-13T05:37:14+00:00</time>
      </trkpt>
      <trkpt lat="45.39483" lon="2.26303">
        <ele>674</ele>
        <time>2024-09-13T05:37:17+00:00</time>
      </trkpt>
      <trkpt lat="45.39519" lon="2.26343">
        <ele>674</ele>
        <time>2024-09-13T05:37:20+00:00</time>
      </trkpt>
      <trkpt lat="45.39537" lon="2.26358">
        <ele>670</ele>
        <time>2024-09-13T05:37:23+00:00</time>
      </trkpt>
      <trkpt lat="45.39565" lon="2.26371">
        <ele>668</ele>
        <time>2024-09-13T05:37:26+00:00</time>
      </trkpt>
      <trkpt lat="45.3961" lon="2.26393">
        <ele>663</ele>
        <time>2024-09-13T05:37:29+00:00</time>
      </trkpt>
      <trkpt lat="45.39634" lon="2.26397">
        <ele>663</ele>
        <time>2024-09-13T05:37:32+00:00</time>
      </trkpt>
      <trkpt lat="45.39663" lon="2.26405">
        <ele>664</ele>
        <time>2024-09-13T05:37:35+00:00</time>
      </trkpt>
      <trkpt lat="45.39698" lon="2.26427">
        <ele>667</ele>
        <time>2024-09-13T05:37:38+00:00</time>
      </trkpt>
      <trkpt lat="45.3974" lon="2.26443">
        <ele>672</ele>
        <time>2024-09-13T05:37:41+00:00</time>
      </trkpt>
      <trkpt lat="45.39763" lon="2.26454">
        <ele>672</ele>
        <time>2024-09-13T05:37:44+00:00</time>
      </trkpt>
      <trkpt lat="45.39771" lon="2.26479">
        <ele>676</ele>
        <time>2024-09-13T05:37:47+00:00</time>
      </trkpt>
      <trkpt lat="45.39785" lon="2.26524">
        <ele>686</ele>
        <time>2024-09-13T05:37:50+00:00</time>
      </trkpt>
      <trkpt lat="45.39803" lon="2.26548">
        <ele>688</ele>
        <time>2024-09-13T05:37:53+00:00</time>
      </trkpt>
      <trkpt lat="45.39843" lon="2.26567">
        <ele>688</ele>
        <time>2024-09-13T05:37:56+00:00</time>
      </trkpt>
      <trkpt lat="45.39873" lon="2.26574">
        <ele>688</ele>
        <time>2024-09-13T05:37:59+00:00</time>
      </trkpt>
      <trkpt lat="45.39897" lon="2.26579">
        <ele>688</ele>
        <time>2024-09-13T05:38:02+00:00</time>
      </trkpt>
      <trkpt lat="45.39923" lon="2.26585">
        <ele>690</ele>
        <time>2024-09-13T05:38:05+00:00</time>
      </trkpt>
      <trkpt lat="45.39952" lon="2.26592">
        <ele>692</ele>
        <time>2024-09-13T05:38:08+00:00</time>
      </trkpt>
      <trkpt lat="45.39976" lon="2.2658">
        <ele>688.3</ele>
        <time>2024-09-13T05:38:11+00:00</time>
      </trkpt>
      <trkpt lat="45.40001" lon="2.26553">
        <ele>695</ele>
        <time>2024-09-13T05:38:14+00:00</time>
      </trkpt>
      <trkpt lat="45.40016" lon="2.26509">
        <ele>697</ele>
        <time>2024-09-13T05:38:17+00:00</time>
      </trkpt>
      <trkpt lat="45.40043" lon="2.26432">
        <ele>699</ele>
        <time>2024-09-13T05:38:20+00:00</time>
      </trkpt>
      <trkpt lat="45.40057" lon="2.26395">
        <ele>698</ele>
        <time>2024-09-13T05:38:23+00:00</time>
      </trkpt>
      <trkpt lat="45.40081" lon="2.26333">
        <ele>698</ele>
        <time>2024-09-13T05:38:26+00:00</time>
      </trkpt>
      <trkpt lat="45.40102" lon="2.2634">
        <ele>699</ele>
        <time>2024-09-13T05:38:29+00:00</time>
      </trkpt>
      <trkpt lat="45.40126" lon="2.26356">
        <ele>697</ele>
        <time>2024-09-13T05:38:32+00:00</time>
      </trkpt>
      <trkpt lat="45.40159" lon="2.26378">
        <ele>695</ele>
        <time>2024-09-13T05:38:35+00:00</time>
      </trkpt>
      <trkpt lat="45.4018" lon="2.26401">
        <ele>689</ele>
        <time>2024-09-13T05:38:38+00:00</time>
      </trkpt>
      <trkpt lat="45.40207" lon="2.2643">
        <ele>683</ele>
        <time>2024-09-13T05:38:41+00:00</time>
      </trkpt>
      <trkpt lat="45.4023" lon="2.26415">
        <ele>676</ele>
        <time>2024-09-13T05:38:44+00:00</time>
      </trkpt>
      <trkpt lat="45.40236" lon="2.26379">
        <ele>667</ele>
        <time>2024-09-13T05:38:47+00:00</time>
      </trkpt>
      <trkpt lat="45.40243" lon="2.26338">
        <ele>667</ele>
        <time>2024-09-13T05:38:50+00:00</time>
      </trkpt>
      <trkpt lat="45.40271" lon="2.26328">
        <ele>667</ele>
        <time>2024-09-13T05:38:53+00:00</time>
      </trkpt>
      <trkpt lat="45.4031" lon="2.26314">
        <ele>666</ele>
        <time>2024-09-13T05:38:56+00:00</time>
      </trkpt>
      <trkpt lat="45.40314" lon="2.26264">
        <ele>665</ele>
        <time>2024-09-13T05:38:59+00:00</time>
      </trkpt>
      <trkpt lat="45.40318" lon="2.26215">
        <ele>661</ele>
        <time>2024-09-13T05:39:02+00:00</time>
      </trkpt>
      <trkpt lat="45.40325" lon="2.26121">
        <ele>661</ele>
        <time>2024-09-13T05:39:05+00:00</time>
      </trkpt>
      <trkpt lat="45.40332" lon="2.2608">
        <ele>657</ele>
        <time>2024-09-13T05:39:08+00:00</time>
      </trkpt>
      <trkpt lat="45.40344" lon="2.26009">
        <ele>658</ele>
        <time>2024-09-13T05:39:11+00:00</time>
      </trkpt>
      <trkpt lat="45.4036" lon="2.25971">
        <ele>659</ele>
        <time>2024-09-13T05:39:14+00:00</time>
      </trkpt>
      <trkpt lat="45.40391" lon="2.25896">
        <ele>659</ele>
        <time>2024-09-13T05:39:17+00:00</time>
      </trkpt>
      <trkpt lat="45.40393" lon="2.25844">
        <ele>656</ele>
        <time>2024-09-13T05:39:20+00:00</time>
      </trkpt>
      <trkpt lat="45.40411" lon="2.25788">
        <ele>652</ele>
        <time>2024-09-13T05:39:23+00:00</time>
      </trkpt>
      <trkpt lat="45.4041" lon="2.25743">
        <ele>652</ele>
        <time>2024-09-13T05:39:26+00:00</time>
      </trkpt>
      <trkpt lat="45.4041" lon="2.25698">
        <ele>652</ele>
        <time>2024-09-13T05:39:29+00:00</time>
      </trkpt>
      <trkpt lat="45.40409" lon="2.25651">
        <ele>656</ele>
        <time>2024-09-13T05:39:32+00:00</time>
      </trkpt>
      <trkpt lat="45.40387" lon="2.25631">
        <ele>656</ele>
        <time>2024-09-13T05:39:35+00:00</time>
      </trkpt>
      <trkpt lat="45.40361" lon="2.25608">
        <ele>655</ele>
        <time>2024-09-13T05:39:38+00:00</time>
      </trkpt>
      <trkpt lat="45.40392" lon="2.25602">
        <ele>655</ele>
        <time>2024-09-13T05:39:41+00:00</time>
      </trkpt>
      <trkpt lat="45.40424" lon="2.25597">
        <ele>656</ele>
        <time>2024-09-13T05:39:44+00:00</time>
      </trkpt>
      <trkpt lat="45.40456" lon="2.25591">
        <ele>653</ele>
        <time>2024-09-13T05:39:47+00:00</time>
      </trkpt>
      <trkpt lat="45.40485" lon="2.25578">
        <ele>651</ele>
        <time>2024-09-13T05:39:50+00:00</time>
      </trkpt>
      <trkpt lat="45.40534" lon="2.25557">
        <ele>645</ele>
        <time>2024-09-13T05:39:53+00:00</time>
      </trkpt>
      <trkpt lat="45.40551" lon="2.25539">
        <ele>640</ele>
        <time>2024-09-13T05:39:56+00:00</time>
      </trkpt>
      <trkpt lat="45.40554" lon="2.255">
        <ele>636</ele>
        <time>2024-09-13T05:39:59+00:00</time>
      </trkpt>
      <trkpt lat="45.4056" lon="2.25441">
        <ele>634</ele>
        <time>2024-09-13T05:40:02+00:00</time>
      </trkpt>
      <trkpt lat="45.40566" lon="2.25408">
        <ele>634</ele>
        <time>2024-09-13T05:40:05+00:00</time>
      </trkpt>
      <trkpt lat="45.40572" lon="2.25374">
        <ele>633</ele>
        <time>2024-09-13T05:40:08+00:00</time>
      </trkpt>
      <trkpt lat="45.40573" lon="2.25338">
        <ele>633</ele>
        <time>2024-09-13T05:40:11+00:00</time>
      </trkpt>
      <trkpt lat="45.40573" lon="2.25295">
        <ele>627</ele>
        <time>2024-09-13T05:40:14+00:00</time>
      </trkpt>
      <trkpt lat="45.4059" lon="2.25258">
        <ele>626</ele>
        <time>2024-09-13T05:40:17+00:00</time>
      </trkpt>
      <trkpt lat="45.40616" lon="2.25248">
        <ele>625</ele>
        <time>2024-09-13T05:40:20+00:00</time>
      </trkpt>
      <trkpt lat="45.4065" lon="2.25235">
        <ele>619</ele>
        <time>2024-09-13T05:40:23+00:00</time>
      </trkpt>
      <trkpt lat="45.40674" lon="2.25222">
        <ele>616</ele>
        <time>2024-09-13T05:40:26+00:00</time>
      </trkpt>
      <trkpt lat="45.40703" lon="2.25207">
        <ele>616</ele>
        <time>2024-09-13T05:40:29+00:00</time>
      </trkpt>
      <trkpt lat="45.40721" lon="2.25194">
        <ele>616</ele>
        <time>2024-09-13T05:40:32+00:00</time>
      </trkpt>
      <trkpt lat="45.40731" lon="2.25227">
        <ele>620</ele>
        <time>2024-09-13T05:40:35+00:00</time>
      </trkpt>
      <trkpt lat="45.40742" lon="2.25267">
        <ele>626</ele>
        <time>2024-09-13T05:40:38+00:00</time>
      </trkpt>
      <trkpt lat="45.40758" lon="2.25298">
        <ele>629</ele>
        <time>2024-09-13T05:40:41+00:00</time>
      </trkpt>
      <trkpt lat="45.4078" lon="2.2534">
        <ele>635</ele>
        <time>2024-09-13T05:40:44+00:00</time>
      </trkpt>
      <trkpt lat="45.40808" lon="2.25354">
        <ele>635</ele>
        <time>2024-09-13T05:40:47+00:00</time>
      </trkpt>
      <trkpt lat="45.40831" lon="2.25366">
        <ele>635</ele>
        <time>2024-09-13T05:40:50+00:00</time>
      </trkpt>
      <trkpt lat="45.40857" lon="2.25379">
        <ele>637</ele>
        <time>2024-09-13T05:40:53+00:00</time>
      </trkpt>
      <trkpt lat="45.40854" lon="2.25429">
        <ele>639</ele>
        <time>2024-09-13T05:40:56+00:00</time>
      </trkpt>
      <trkpt lat="45.40852" lon="2.25479">
        <ele>640</ele>
        <time>2024-09-13T05:40:59+00:00</time>
      </trkpt>
      <trkpt lat="45.4085" lon="2.2552">
        <ele>640</ele>
        <time>2024-09-13T05:41:02+00:00</time>
      </trkpt>
      <trkpt lat="45.40848" lon="2.2558">
        <ele>640</ele>
        <time>2024-09-13T05:41:05+00:00</time>
      </trkpt>
      <trkpt lat="45.40836" lon="2.25624">
        <ele>640</ele>
        <time>2024-09-13T05:41:08+00:00</time>
      </trkpt>
      <trkpt lat="45.40824" lon="2.25668">
        <ele>643</ele>
        <time>2024-09-13T05:41:11+00:00</time>
      </trkpt>
      <trkpt lat="45.40808" lon="2.25726">
        <ele>651</ele>
        <time>2024-09-13T05:41:14+00:00</time>
      </trkpt>
      <trkpt lat="45.40805" lon="2.25778">
        <ele>653</ele>
        <time>2024-09-13T05:41:17+00:00</time>
      </trkpt>
      <trkpt lat="45.40802" lon="2.2583">
        <ele>653</ele>
        <time>2024-09-13T05:41:20+00:00</time>
      </trkpt>
      <trkpt lat="45.40799" lon="2.25881">
        <ele>651</ele>
        <time>2024-09-13T05:41:23+00:00</time>
      </trkpt>
      <trkpt lat="45.40797" lon="2.25915">
        <ele>651</ele>
        <time>2024-09-13T05:41:26+00:00</time>
      </trkpt>
      <trkpt lat="45.40795" lon="2.25951">
        <ele>652</ele>
        <time>2024-09-13T05:41:29+00:00</time>
      </trkpt>
      <trkpt lat="45.40784" lon="2.26005">
        <ele>655</ele>
        <time>2024-09-13T05:41:32+00:00</time>
      </trkpt>
      <trkpt lat="45.40792" lon="2.26042">
        <ele>657</ele>
        <time>2024-09-13T05:41:35+00:00</time>
      </trkpt>
      <trkpt lat="45.40802" lon="2.26091">
        <ele>658</ele>
        <time>2024-09-13T05:41:38+00:00</time>
      </trkpt>
      <trkpt lat="45.40809" lon="2.26138">
        <ele>657</ele>
        <time>2024-09-13T05:41:41+00:00</time>
      </trkpt>
      <trkpt lat="45.40816" lon="2.26185">
        <ele>657</ele>
        <time>2024-09-13T05:41:44+00:00</time>
      </trkpt>
      <trkpt lat="45.40821" lon="2.26218">
        <ele>657</ele>
        <time>2024-09-13T05:41:47+00:00</time>
      </trkpt>
      <trkpt lat="45.40827" lon="2.26254">
        <ele>657</ele>
        <time>2024-09-13T05:41:50+00:00</time>
      </trkpt>
      <trkpt lat="45.40839" lon="2.26287">
        <ele>659</ele>
        <time>2024-09-13T05:41:53+00:00</time>
      </trkpt>
      <trkpt lat="45.40855" lon="2.26327">
        <ele>661</ele>
        <time>2024-09-13T05:41:56+00:00</time>
      </trkpt>
      <trkpt lat="45.41062" lon="2.26516">
        <ele>664.8</ele>
        <time>2024-09-13T05:42:50+00:00</time>
      </trkpt>
      <trkpt lat="45.41059" lon="2.26543">
        <ele>668</ele>
        <time>2024-09-13T05:42:53+00:00</time>
      </trkpt>
      <trkpt lat="45.41055" lon="2.26597">
        <ele>669</ele>
        <time>2024-09-13T05:42:56+00:00</time>
      </trkpt>
      <trkpt lat="45.41034" lon="2.26641">
        <ele>657.2</ele>
        <time>2024-09-13T05:42:59+00:00</time>
      </trkpt>
      <trkpt lat="45.41062" lon="2.2669">
        <ele>643.8</ele>
        <time>2024-09-13T05:43:02+00:00</time>
      </trkpt>
      <trkpt lat="45.4107" lon="2.26721">
        <ele>641</ele>
        <time>2024-09-13T05:43:05+00:00</time>
      </trkpt>
      <trkpt lat="45.41082" lon="2.26741">
        <ele>637</ele>
        <time>2024-09-13T05:43:08+00:00</time>
      </trkpt>
      <trkpt lat="45.41079" lon="2.26765">
        <ele>651</ele>
        <time>2024-09-13T05:43:11+00:00</time>
      </trkpt>
      <trkpt lat="45.41061" lon="2.26827">
        <ele>640</ele>
        <time>2024-09-13T05:43:14+00:00</time>
      </trkpt>
      <trkpt lat="45.41056" lon="2.26874">
        <ele>638</ele>
        <time>2024-09-13T05:43:17+00:00</time>
      </trkpt>
      <trkpt lat="45.4105" lon="2.26921">
        <ele>638</ele>
        <time>2024-09-13T05:43:20+00:00</time>
      </trkpt>
      <trkpt lat="45.41046" lon="2.26955">
        <ele>637</ele>
        <time>2024-09-13T05:43:23+00:00</time>
      </trkpt>
      <trkpt lat="45.41042" lon="2.2699">
        <ele>637</ele>
        <time>2024-09-13T05:43:26+00:00</time>
      </trkpt>
      <trkpt lat="45.41023" lon="2.27027">
        <ele>638</ele>
        <time>2024-09-13T05:43:29+00:00</time>
      </trkpt>
      <trkpt lat="45.41005" lon="2.27064">
        <ele>636</ele>
        <time>2024-09-13T05:43:32+00:00</time>
      </trkpt>
      <trkpt lat="45.40985" lon="2.27104">
        <ele>634</ele>
        <time>2024-09-13T05:43:35+00:00</time>
      </trkpt>
      <trkpt lat="45.40974" lon="2.27141">
        <ele>627</ele>
        <time>2024-09-13T05:43:38+00:00</time>
      </trkpt>
      <trkpt lat="45.40958" lon="2.27198">
        <ele>624</ele>
        <time>2024-09-13T05:43:41+00:00</time>
      </trkpt>
      <trkpt lat="45.40952" lon="2.27239">
        <ele>618</ele>
        <time>2024-09-13T05:43:44+00:00</time>
      </trkpt>
      <trkpt lat="45.40947" lon="2.27273">
        <ele>616</ele>
        <time>2024-09-13T05:43:47+00:00</time>
      </trkpt>
      <trkpt lat="45.40942" lon="2.27308">
        <ele>614</ele>
        <time>2024-09-13T05:43:50+00:00</time>
      </trkpt>
      <trkpt lat="45.40931" lon="2.27337">
        <ele>614</ele>
        <time>2024-09-13T05:43:53+00:00</time>
      </trkpt>
      <trkpt lat="45.40918" lon="2.27368">
        <ele>613</ele>
        <time>2024-09-13T05:43:56+00:00</time>
      </trkpt>
      <trkpt lat="45.40902" lon="2.27395">
        <ele>612</ele>
        <time>2024-09-13T05:43:59+00:00</time>
      </trkpt>
      <trkpt lat="45.40882" lon="2.27428">
        <ele>611</ele>
        <time>2024-09-13T05:44:02+00:00</time>
      </trkpt>
      <trkpt lat="45.40845" lon="2.27464">
        <ele>601</ele>
        <time>2024-09-13T05:44:05+00:00</time>
      </trkpt>
      <trkpt lat="45.40828" lon="2.27481">
        <ele>601</ele>
        <time>2024-09-13T05:44:08+00:00</time>
      </trkpt>
      <trkpt lat="45.40829" lon="2.27504">
        <ele>603</ele>
        <time>2024-09-13T05:44:11+00:00</time>
      </trkpt>
    </trkseg>
  </trk>
</gpx>